Time;durP1;ratioP1;P1;durP2;ratioP2;P2;SDS_P1;SDS_P2;PMS_P1;PMS_P2;Temp;Humidity;BMP_temperature;BMP_pressure;BME280_temperature;BME280_humidity;BME280_pressure;Samples;Min_cycle;Max_cycle;Signal;HPM_P1;HPM_P2
2023/08/16 00:00:03;;;;;;;6.40;2.83;;;16.00;95.90;;;;;;5113655;27;20101;-78
2023/08/16 00:02:29;;;;;;;4.32;2.60;;;16.00;95.90;;;;;;5104168;27;20057;-79
2023/08/16 00:04:55;;;;;;;3.80;2.35;;;16.00;96.00;;;;;;5115441;27;20059;-81
2023/08/16 00:07:21;;;;;;;5.32;2.40;;;16.00;96.10;;;;;;5108414;27;20050;-81
2023/08/16 00:09:49;;;;;;;3.85;2.88;;;15.90;96.10;;;;;;5091302;27;20039;-80
2023/08/16 00:12:18;;;;;;;4.72;3.05;;;15.90;96.20;;;;;;5113830;27;20061;-82
2023/08/16 00:14:44;;;;;;;3.08;2.70;;;15.80;96.30;;;;;;5111700;27;20130;-80
2023/08/16 00:17:10;;;;;;;4.30;2.85;;;15.80;96.50;;;;;;5096065;27;20448;-77
2023/08/16 00:19:38;;;;;;;3.88;2.97;;;15.80;96.70;;;;;;5113367;27;20078;-80
2023/08/16 00:22:04;;;;;;;5.60;3.03;;;15.80;96.90;;;;;;5112862;27;20376;-80
2023/08/16 00:24:30;;;;;;;3.90;2.83;;;15.70;96.90;;;;;;5112722;27;20074;-83
2023/08/16 00:26:56;;;;;;;3.88;2.58;;;15.70;97.00;;;;;;5111612;27;20537;-76
2023/08/16 00:29:21;;;;;;;3.67;2.72;;;15.70;97.00;;;;;;5109608;27;20398;-89
2023/08/16 00:31:47;;;;;;;4.30;2.55;;;15.70;97.10;;;;;;5111708;27;20059;-78
2023/08/16 00:34:13;;;;;;;3.28;2.55;;;15.70;97.30;;;;;;5116923;27;20058;-82
2023/08/16 00:36:39;;;;;;;4.28;2.80;;;15.60;97.40;;;;;;5120403;27;20054;-86
2023/08/16 00:39:05;;;;;;;3.40;2.53;;;15.60;97.50;;;;;;5136386;27;20423;-81
2023/08/16 00:41:30;;;;;;;4.80;2.85;;;15.60;97.90;;;;;;5105463;27;20058;-81
2023/08/16 00:43:56;;;;;;;4.53;3.28;;;15.50;97.70;;;;;;5089510;27;20580;-80
2023/08/16 00:46:22;;;;;;;5.70;4.00;;;15.50;97.80;;;;;;5078708;27;21155;-86
2023/08/16 00:48:49;;;;;;;5.82;4.22;;;15.40;98.00;;;;;;5092154;27;20087;-75
2023/08/16 00:51:16;;;;;;;5.25;4.30;;;15.40;98.30;;;;;;5073793;27;20055;-76
2023/08/16 00:53:44;;;;;;;5.05;4.40;;;15.30;98.40;;;;;;5095332;27;20054;-76
2023/08/16 00:56:11;;;;;;;6.00;4.53;;;15.30;98.50;;;;;;5076106;27;22202;-76
2023/08/16 00:58:37;;;;;;;5.75;5.00;;;15.30;98.60;;;;;;5110817;27;20047;-76
2023/08/16 01:01:03;;;;;;;6.90;4.30;;;15.30;98.70;;;;;;5090643;27;20072;-79
2023/08/16 01:03:29;;;;;;;7.57;5.45;;;15.30;98.80;;;;;;5092490;27;20047;-80
2023/08/16 01:05:55;;;;;;;12.00;5.60;;;15.30;98.80;;;;;;5078600;27;20085;-80
2023/08/16 01:08:21;;;;;;;6.95;6.03;;;15.20;98.90;;;;;;5092559;27;20419;-78
2023/08/16 01:11:07;;;;;;;6.95;5.20;;;15.20;99.10;;;;;;5080997;27;20047;-79
2023/08/16 01:13:47;;;;;;;6.43;5.25;;;15.20;99.30;;;;;;5074295;27;20046;-81
2023/08/16 01:16:15;;;;;;;6.57;5.15;;;15.20;99.30;;;;;;5094521;27;21994;-83
2023/08/16 01:18:42;;;;;;;6.57;5.10;;;15.10;99.30;;;;;;5092595;27;20042;-77
2023/08/16 01:21:11;;;;;;;5.75;5.10;;;15.80;99.50;;;;;;5087521;27;20056;-77
2023/08/16 01:24:13;;;;;;;5.57;4.32;;;15.10;99.50;;;;;;5071713;27;20748;-77
2023/08/16 01:26:41;;;;;;;5.30;4.40;;;15.10;99.50;;;;;;5088513;27;20070;-74
2023/08/16 01:29:08;;;;;;;9.02;5.07;;;15.00;99.40;;;;;;5083585;27;20061;-72
2023/08/16 01:31:34;;;;;;;5.63;4.25;;;15.00;99.30;;;;;;5078173;27;20038;-76
2023/08/16 01:34:00;;;;;;;7.32;4.43;;;15.00;99.30;;;;;;5113006;27;20050;-80
2023/08/16 01:36:27;;;;;;;5.97;4.22;;;14.90;99.40;;;;;;5083730;27;20672;-78
2023/08/16 01:38:54;;;;;;;5.35;4.72;;;14.90;99.60;;;;;;5086943;27;20097;-79
2023/08/16 01:41:42;;;;;;;7.00;5.22;;;14.90;99.80;;;;;;5076729;27;20039;-81
2023/08/16 01:44:09;;;;;;;6.20;5.28;;;14.80;99.90;;;;;;5089295;27;20051;-76
2023/08/16 01:46:37;;;;;;;7.97;5.60;;;14.80;99.90;;;;;;5056987;27;20043;-76
2023/08/16 01:49:03;;;;;;;7.55;5.53;;;14.80;99.90;;;;;;5087329;27;20110;-77
2023/08/16 01:51:29;;;;;;;8.27;5.65;;;14.80;99.90;;;;;;5064714;27;20081;-81
2023/08/16 01:53:55;;;;;;;6.07;5.47;;;14.80;99.90;;;;;;5074486;27;20057;-81
2023/08/16 01:56:21;;;;;;;7.22;5.68;;;14.70;99.90;;;;;;5086434;27;20130;-82
2023/08/16 01:58:48;;;;;;;7.50;5.45;;;14.80;99.90;;;;;;5070351;27;20456;-81
2023/08/16 02:01:14;;;;;;;6.10;5.50;;;14.80;99.90;;;;;;5087471;27;21546;-80
2023/08/16 02:03:42;;;;;;;6.35;5.63;;;14.70;99.90;;;;;;5088437;27;20047;-80
2023/08/16 02:06:08;;;;;;;6.85;6.15;;;14.70;99.90;;;;;;5086468;27;20614;-79
2023/08/16 02:08:33;;;;;;;7.85;6.03;;;14.70;99.90;;;;;;5075462;27;20047;-80
2023/08/16 02:10:59;;;;;;;7.13;6.15;;;14.70;99.90;;;;;;5071778;27;20101;-81
2023/08/16 02:13:25;;;;;;;8.80;6.25;;;14.70;99.90;;;;;;5090828;27;20046;-79
2023/08/16 02:16:02;;;;;;;7.80;6.53;;;14.70;99.90;;;;;;5092398;27;20157;-77
2023/08/16 02:18:30;;;;;;;7.35;6.00;;;14.70;99.90;;;;;;5088604;27;20350;-78
2023/08/16 02:20:56;;;;;;;7.30;5.80;;;14.70;99.90;;;;;;5083866;27;20055;-82
2023/08/16 02:23:22;;;;;;;8.43;6.75;;;14.70;99.90;;;;;;5058867;27;20673;-81
2023/08/16 02:25:48;;;;;;;8.48;6.63;;;14.70;99.90;;;;;;5106007;27;20046;-84
2023/08/16 02:28:14;;;;;;;8.30;6.47;;;14.60;99.90;;;;;;5086043;27;20127;-82
2023/08/16 02:30:40;;;;;;;9.55;6.13;;;14.70;99.90;;;;;;5086966;27;20053;-80
2023/08/16 02:33:06;;;;;;;7.88;6.40;;;14.60;99.90;;;;;;5086149;27;20038;-77
2023/08/16 02:35:35;;;;;;;10.40;7.00;;;14.60;99.90;;;;;;5087726;27;20046;-79
2023/08/16 02:38:00;;;;;;;6.90;5.88;;;14.60;99.90;;;;;;5056250;27;20052;-79
2023/08/16 02:40:26;;;;;;;7.88;5.80;;;14.60;99.90;;;;;;5089018;27;20050;-84
2023/08/16 02:42:52;;;;;;;8.63;6.13;;;14.60;99.90;;;;;;5088043;27;20046;-79
2023/08/16 02:45:19;;;;;;;7.22;6.22;;;14.60;99.90;;;;;;5070260;27;20563;-77
2023/08/16 02:47:46;;;;;;;6.95;5.07;;;14.60;99.90;;;;;;5070421;27;20054;-79
2023/08/16 02:50:12;;;;;;;9.70;5.45;;;14.50;99.90;;;;;;5076211;27;20045;-80
2023/08/16 02:52:38;;;;;;;5.25;4.75;;;14.50;99.90;;;;;;5076403;27;20500;-79
2023/08/16 02:55:04;;;;;;;6.13;5.10;;;14.50;99.90;;;;;;5084527;27;20043;-78
2023/08/16 02:57:30;;;;;;;6.72;5.22;;;14.50;99.90;;;;;;5083630;27;20046;-82
2023/08/16 02:59:55;;;;;;;5.65;4.93;;;14.50;99.90;;;;;;5086439;27;20114;-80
2023/08/16 03:02:21;;;;;;;5.07;4.57;;;14.50;99.90;;;;;;5072359;27;20039;-81
2023/08/16 03:04:47;;;;;;;5.68;4.50;;;14.40;99.90;;;;;;5087810;27;20046;-78
2023/08/16 03:07:13;;;;;;;5.45;4.47;;;14.40;99.90;;;;;;5081881;27;20054;-77
2023/08/16 03:09:39;;;;;;;5.00;4.00;;;14.40;99.90;;;;;;5085964;27;20059;-77
2023/08/16 03:12:06;;;;;;;5.97;4.15;;;14.40;99.90;;;;;;5088260;27;20151;-81
2023/08/16 03:14:31;;;;;;;5.75;4.25;;;14.40;99.90;;;;;;5091466;27;20077;-80
2023/08/16 03:16:58;;;;;;;5.47;4.35;;;14.40;99.90;;;;;;5070528;27;20042;-79
2023/08/16 03:19:24;;;;;;;4.30;3.90;;;14.30;99.90;;;;;;5085169;27;20477;-81
2023/08/16 03:21:50;;;;;;;5.43;4.30;;;14.30;99.90;;;;;;5086112;27;20054;-84
2023/08/16 03:24:15;;;;;;;6.90;3.88;;;14.30;99.90;;;;;;5071704;27;20054;-80
2023/08/16 03:26:41;;;;;;;6.32;4.32;;;14.30;99.90;;;;;;5087579;27;20038;-80
2023/08/16 03:29:07;;;;;;;4.70;4.07;;;14.30;99.90;;;;;;5085114;27;20051;-80
2023/08/16 03:31:33;;;;;;;5.00;3.92;;;14.20;99.90;;;;;;5087493;27;20194;-79
2023/08/16 03:33:59;;;;;;;3.92;3.53;;;14.20;99.90;;;;;;5086044;27;20545;-79
2023/08/16 03:36:25;;;;;;;4.82;3.85;;;14.20;99.90;;;;;;5075014;27;20046;-79
2023/08/16 03:38:51;;;;;;;4.03;3.63;;;14.20;99.90;;;;;;5084032;27;20848;-79
2023/08/16 03:41:16;;;;;;;5.75;4.05;;;14.20;99.90;;;;;;5089408;27;20073;-80
2023/08/16 03:43:42;;;;;;;5.90;3.80;;;14.10;99.90;;;;;;5107354;27;21573;-78
2023/08/16 03:46:08;;;;;;;5.70;4.28;;;14.10;99.90;;;;;;5091179;27;20065;-78
2023/08/16 03:48:34;;;;;;;7.63;3.60;;;14.10;99.90;;;;;;5088494;27;20606;-80
2023/08/16 03:51:00;;;;;;;3.88;3.47;;;14.10;99.90;;;;;;5071517;27;20434;-80
2023/08/16 03:53:25;;;;;;;4.65;3.70;;;14.10;99.90;;;;;;5077235;27;20054;-78
2023/08/16 03:55:58;;;;;;;4.93;4.00;;;14.10;99.90;;;;;;5088778;27;20683;-79
2023/08/16 03:58:24;;;;;;;5.97;3.78;;;14.10;99.90;;;;;;5074819;27;20049;-76
2023/08/16 04:00:52;;;;;;;5.15;3.80;;;14.00;99.90;;;;;;5074512;27;20053;-76
2023/08/16 04:03:18;;;;;;;5.22;3.90;;;14.10;99.90;;;;;;5089240;27;20049;-76
2023/08/16 04:05:44;;;;;;;5.50;3.67;;;14.10;99.90;;;;;;5093931;27;20057;-76
2023/08/16 04:08:10;;;;;;;4.35;3.50;;;14.00;99.90;;;;;;5086968;27;20055;-79
2023/08/16 04:10:37;;;;;;;4.80;4.10;;;14.00;99.90;;;;;;5076079;27;20055;-80
2023/08/16 04:13:03;;;;;;;6.03;3.13;;;14.00;99.90;;;;;;5058997;27;20449;-77
2023/08/16 04:15:29;;;;;;;3.40;2.53;;;14.00;99.90;;;;;;5075993;27;20054;-78
2023/08/16 04:17:55;;;;;;;3.60;2.67;;;13.80;99.90;;;;;;5053291;27;20093;-80
2023/08/16 04:20:24;;;;;;;5.20;2.67;;;13.90;99.90;;;;;;5088178;27;20393;-77
2023/08/16 04:22:50;;;;;;;3.55;2.90;;;13.90;99.90;;;;;;5089760;27;20314;-80
2023/08/16 04:25:17;;;;;;;3.40;3.00;;;13.90;99.90;;;;;;5088136;27;20047;-80
2023/08/16 04:27:43;;;;;;;3.47;2.70;;;14.00;99.90;;;;;;5074618;27;20488;-81
2023/08/16 04:30:16;;;;;;;4.43;3.53;;;13.90;99.90;;;;;;5087781;27;20043;-79
2023/08/16 04:32:41;;;;;;;4.35;3.30;;;13.80;99.90;;;;;;5086616;27;20051;-78
2023/08/16 04:35:08;;;;;;;4.13;3.40;;;13.80;99.90;;;;;;5086005;27;20107;-77
2023/08/16 04:37:34;;;;;;;4.72;3.78;;;13.80;99.90;;;;;;5094706;27;22124;-77
2023/08/16 04:40:00;;;;;;;4.68;4.05;;;13.80;99.90;;;;;;5089107;27;20047;-77
2023/08/16 04:42:27;;;;;;;5.18;3.70;;;13.80;99.90;;;;;;5070775;27;20513;-81
2023/08/16 04:44:54;;;;;;;4.47;3.90;;;13.80;99.90;;;;;;5059696;27;20046;-78
2023/08/16 04:47:20;;;;;;;4.22;3.70;;;13.80;99.90;;;;;;5093818;27;20396;-78
2023/08/16 04:49:45;;;;;;;5.93;3.67;;;13.80;99.90;;;;;;5071248;27;20090;-80
2023/08/16 04:52:11;;;;;;;4.30;3.50;;;13.80;99.90;;;;;;5070725;27;20038;-77
2023/08/16 04:54:37;;;;;;;4.03;3.28;;;13.80;99.90;;;;;;5088729;27;20050;-81
2023/08/16 04:57:03;;;;;;;3.78;3.35;;;13.80;99.90;;;;;;5060529;27;20057;-76
2023/08/16 04:59:29;;;;;;;4.20;3.67;;;13.80;99.90;;;;;;5076279;27;20042;-77
2023/08/16 05:01:55;;;;;;;4.90;3.63;;;13.90;99.90;;;;;;5087859;27;20158;-82
2023/08/16 05:04:21;;;;;;;4.68;3.70;;;13.90;99.90;;;;;;5089307;27;20089;-78
2023/08/16 05:06:48;;;;;;;4.50;3.63;;;13.90;99.90;;;;;;5091405;27;20058;-79
2023/08/16 05:09:13;;;;;;;3.85;3.45;;;14.00;99.90;;;;;;5107046;27;20039;-83
2023/08/16 05:11:39;;;;;;;5.38;3.63;;;14.00;99.90;;;;;;5072299;27;20093;-80
2023/08/16 05:14:05;;;;;;;4.20;3.80;;;14.00;99.90;;;;;;5087887;27;20511;-79
2023/08/16 05:16:31;;;;;;;4.15;3.58;;;14.00;99.90;;;;;;5075741;27;20053;-76
2023/08/16 05:18:57;;;;;;;6.00;3.80;;;14.00;99.90;;;;;;5083452;27;20450;-80
2023/08/16 05:21:23;;;;;;;4.85;4.28;;;14.10;99.90;;;;;;5094188;27;20165;-81
2023/08/16 05:23:49;;;;;;;5.43;4.40;;;14.20;99.90;;;;;;5088490;27;20433;-80
2023/08/16 05:26:15;;;;;;;4.55;4.05;;;14.20;99.90;;;;;;5092380;27;20043;-81
2023/08/16 05:28:40;;;;;;;6.82;5.20;;;14.20;99.90;;;;;;5088372;27;20054;-78
2023/08/16 05:31:11;;;;;;;6.53;5.10;;;14.30;99.90;;;;;;5058968;27;20274;-75
2023/08/16 05:33:37;;;;;;;8.88;5.70;;;14.30;99.90;;;;;;5077338;27;20347;-81
2023/08/16 05:36:05;;;;;;;9.35;5.88;;;14.40;99.90;;;;;;5092175;27;20114;-76
2023/08/16 05:38:31;;;;;;;9.85;6.80;;;14.40;99.90;;;;;;5084817;27;20716;-80
2023/08/16 05:41:03;;;;;;;7.38;5.45;;;14.50;99.90;;;;;;5095306;27;20039;-79
2023/08/16 05:43:29;;;;;;;5.78;5.10;;;14.50;99.90;;;;;;5123383;27;20051;-76
2023/08/16 05:45:55;;;;;;;5.15;4.40;;;14.60;99.90;;;;;;5091841;27;20577;-78
2023/08/16 05:48:20;;;;;;;8.02;4.68;;;14.60;99.90;;;;;;5088054;27;20046;-76
2023/08/16 05:50:46;;;;;;;5.10;4.40;;;14.70;99.90;;;;;;5089808;27;20057;-79
2023/08/16 05:53:12;;;;;;;6.60;4.32;;;14.70;99.90;;;;;;5075320;27;20355;-79
2023/08/16 05:55:38;;;;;;;6.70;4.68;;;14.80;99.90;;;;;;5104360;27;20161;-79
2023/08/16 05:58:04;;;;;;;10.30;5.43;;;14.80;99.90;;;;;;5104271;27;20038;-76
2023/08/16 06:00:30;;;;;;;7.75;6.43;;;14.90;99.90;;;;;;5106524;27;20050;-78
2023/08/16 06:02:56;;;;;;;9.82;6.00;;;14.90;99.90;;;;;;5093712;27;20047;-77
2023/08/16 06:05:23;;;;;;;9.30;6.93;;;15.10;99.90;;;;;;5105046;27;20125;-76
2023/08/16 06:07:49;;;;;;;10.05;6.70;;;15.10;99.90;;;;;;5089580;27;20035;-76
2023/08/16 06:10:14;;;;;;;10.60;7.72;;;15.30;99.90;;;;;;5095694;27;20047;-76
2023/08/16 06:12:40;;;;;;;14.25;7.57;;;15.40;99.90;;;;;;5077489;27;20081;-77
2023/08/16 06:15:12;;;;;;;11.45;7.25;;;15.50;99.90;;;;;;5117501;27;20098;-78
2023/08/16 06:17:44;;;;;;;11.00;7.03;;;15.70;99.90;;;;;;5116754;27;20061;-77
2023/08/16 06:20:10;;;;;;;9.00;7.15;;;15.80;99.90;;;;;;5118728;27;20050;-77
2023/08/16 06:22:37;;;;;;;10.63;7.88;;;15.90;99.90;;;;;;5117247;27;20042;-78
2023/08/16 06:25:06;;;;;;;13.00;8.30;;;16.00;99.90;;;;;;5100558;27;20051;-77
2023/08/16 06:27:33;;;;;;;14.70;8.60;;;16.10;99.90;;;;;;5114800;27;20154;-78
2023/08/16 06:29:59;;;;;;;9.95;8.20;;;16.20;99.90;;;;;;5113535;27;20046;-81
2023/08/16 06:32:25;;;;;;;12.35;8.15;;;16.30;99.90;;;;;;5109875;27;20046;-77
2023/08/16 06:34:50;;;;;;;12.90;8.35;;;16.40;99.90;;;;;;5088729;27;20328;-77
2023/08/16 06:37:18;;;;;;;14.90;8.70;;;16.50;99.90;;;;;;5106568;27;20391;-76
2023/08/16 06:39:43;;;;;;;9.55;8.02;;;16.60;99.90;;;;;;5087257;27;20248;-79
2023/08/16 06:42:09;;;;;;;12.82;7.80;;;16.60;99.90;;;;;;5107427;27;20378;-77
2023/08/16 06:44:35;;;;;;;12.68;8.60;;;16.70;99.90;;;;;;5091247;27;20050;-79
2023/08/16 06:47:02;;;;;;;14.85;8.55;;;16.90;99.90;;;;;;5073278;27;20110;-79
2023/08/16 06:49:27;;;;;;;9.35;8.20;;;16.90;99.90;;;;;;5103897;27;20038;-81
2023/08/16 06:51:53;;;;;;;10.60;8.05;;;17.00;99.90;;;;;;5107361;27;20099;-76
2023/08/16 06:54:19;;;;;;;11.73;7.75;;;17.10;99.90;;;;;;5106568;27;20051;-81
2023/08/16 06:56:45;;;;;;;12.38;7.75;;;17.30;99.90;;;;;;5095877;27;20046;-84
2023/08/16 06:59:11;;;;;;;11.63;7.03;;;17.40;99.90;;;;;;5085585;27;20054;-77
2023/08/16 07:01:36;;;;;;;10.25;7.43;;;17.60;99.90;;;;;;5119011;27;20057;-81
2023/08/16 07:04:03;;;;;;;7.70;5.82;;;17.80;99.90;;;;;;5096365;27;20046;-80
2023/08/16 07:06:32;;;;;;;9.35;6.95;;;18.00;99.90;;;;;;5120008;27;20047;-81
2023/08/16 07:09:00;;;;;;;6.13;5.43;;;17.60;99.90;;;;;;5121023;27;20134;-80
2023/08/16 07:11:26;;;;;;;9.27;5.97;;;18.30;99.90;;;;;;5124659;27;20031;-78
2023/08/16 07:13:52;;;;;;;10.13;5.30;;;18.60;99.90;;;;;;5124327;27;20125;-80
2023/08/16 07:16:18;;;;;;;7.88;4.60;;;18.70;99.90;;;;;;5133048;27;21341;-83
2023/08/16 07:18:45;;;;;;;7.20;5.40;;;18.90;99.90;;;;;;5120101;27;20040;-79
2023/08/16 07:21:11;;;;;;;8.73;5.25;;;19.20;99.90;;;;;;5098579;27;20051;-79
2023/08/16 07:23:37;;;;;;;9.10;5.38;;;19.40;99.90;;;;;;5105722;27;20042;-80
2023/08/16 07:26:03;;;;;;;7.38;4.40;;;19.70;99.90;;;;;;5111154;27;20103;-81
2023/08/16 07:28:29;;;;;;;6.82;4.18;;;19.80;99.90;;;;;;5128165;27;20125;-79
2023/08/16 07:30:55;;;;;;;6.68;4.07;;;20.00;99.90;;;;;;5123993;27;20082;-80
2023/08/16 07:33:22;;;;;;;7.32;4.20;;;20.30;99.40;;;;;;5118911;27;20135;-78
2023/08/16 07:35:49;;;;;;;7.38;4.15;;;20.50;98.70;;;;;;5123934;27;20039;-79
2023/08/16 07:38:14;;;;;;;7.72;3.88;;;20.70;97.80;;;;;;5126207;27;20046;-78
2023/08/16 07:40:46;;;;;;;7.13;5.00;;;20.90;97.00;;;;;;5125872;27;20043;-82
2023/08/16 07:43:12;;;;;;;8.88;4.45;;;21.10;95.60;;;;;;5123671;27;20070;-79
2023/08/16 07:45:38;;;;;;;5.45;3.85;;;21.10;95.20;;;;;;5125050;27;20066;-79
2023/08/16 07:48:04;;;;;;;5.78;4.00;;;21.30;94.50;;;;;;5124731;27;20050;-78
2023/08/16 07:50:31;;;;;;;5.28;4.20;;;21.30;93.60;;;;;;5129585;27;20439;-82
2023/08/16 07:52:57;;;;;;;6.13;4.13;;;21.40;92.80;;;;;;5121322;27;20047;-83
2023/08/16 07:55:29;;;;;;;4.40;3.10;;;21.50;91.90;;;;;;5112278;27;20043;-81
2023/08/16 07:57:55;;;;;;;6.00;3.03;;;21.70;91.70;;;;;;5104981;27;20126;-78
2023/08/16 08:00:21;;;;;;;8.25;2.88;;;22.00;91.10;;;;;;5108126;27;20103;-83
2023/08/16 08:02:48;;;;;;;5.65;2.70;;;22.30;89.70;;;;;;5119451;27;20042;-82
2023/08/16 08:05:15;;;;;;;3.92;2.90;;;22.60;86.90;;;;;;5107789;27;20549;-77
2023/08/16 08:07:41;;;;;;;4.20;2.70;;;22.60;83.60;;;;;;5104292;27;20439;-84
2023/08/16 08:10:07;;;;;;;5.93;3.30;;;22.70;81.90;;;;;;5110249;27;20062;-82
2023/08/16 08:12:33;;;;;;;7.40;3.00;;;22.80;80.10;;;;;;5122971;27;20065;-82
2023/08/16 08:14:59;;;;;;;6.60;3.10;;;22.90;78.40;;;;;;5144017;27;20058;-79
2023/08/16 08:17:25;;;;;;;6.47;3.00;;;23.10;77.70;;;;;;5097763;27;20585;-78
2023/08/16 08:19:51;;;;;;;4.28;3.42;;;23.10;77.00;;;;;;5106527;27;20043;-80
2023/08/16 08:22:17;;;;;;;6.07;3.05;;;23.20;74.50;;;;;;5120321;27;20413;-78
2023/08/16 08:24:43;;;;;;;6.93;3.13;;;23.40;72.30;;;;;;5126272;27;20504;-78
2023/08/16 08:27:08;;;;;;;5.50;3.35;;;23.50;69.80;;;;;;5119605;27;20047;-76
2023/08/16 08:29:35;;;;;;;7.15;3.00;;;23.70;68.40;;;;;;5136297;27;20038;-77
2023/08/16 08:32:02;;;;;;;5.78;3.20;;;23.80;67.80;;;;;;5120573;27;20066;-79
2023/08/16 08:34:28;;;;;;;6.85;3.20;;;23.60;65.50;;;;;;5111852;27;20038;-78
2023/08/16 08:36:54;;;;;;;6.05;3.45;;;23.50;64.40;;;;;;5122679;27;20182;-77
2023/08/16 08:39:22;;;;;;;6.65;3.45;;;23.80;64.30;;;;;;5118071;27;20054;-77
2023/08/16 08:41:48;;;;;;;5.95;3.55;;;24.10;61.80;;;;;;5098380;27;20474;-77
2023/08/16 08:44:18;;;;;;;4.15;2.58;;;24.00;57.10;;;;;;5123292;27;20086;-78
2023/08/16 08:46:46;;;;;;;5.30;3.05;;;24.00;55.40;;;;;;5124118;27;20042;-76
2023/08/16 08:49:15;;;;;;;8.60;3.50;;;24.10;55.40;;;;;;5105600;27;20046;-82
2023/08/16 08:51:41;;;;;;;5.85;2.83;;;24.20;52.40;;;;;;5117660;27;20049;-81
2023/08/16 08:54:07;;;;;;;5.40;3.15;;;24.20;51.00;;;;;;5115348;27;20058;-84
2023/08/16 08:56:34;;;;;;;4.47;2.63;;;24.20;50.20;;;;;;5119678;27;20425;-79
2023/08/16 08:59:03;;;;;;;6.90;3.30;;;24.50;50.60;;;;;;5105496;27;20126;-82
2023/08/16 09:01:30;;;;;;;4.20;2.80;;;24.70;47.40;;;;;;5114298;27;20123;-81
2023/08/16 09:04:04;;;;;;;5.75;3.22;;;24.70;46.00;;;;;;5116206;27;20129;-80
2023/08/16 09:06:30;;;;;;;5.03;2.70;;;24.60;45.10;;;;;;5122510;27;20042;-79
2023/08/16 09:08:57;;;;;;;5.53;2.60;;;24.40;45.90;;;;;;5122267;27;20756;-81
2023/08/16 09:11:27;;;;;;;4.03;3.03;;;24.30;47.50;;;;;;5099140;27;20054;-83
2023/08/16 09:13:54;;;;;;;6.43;3.15;;;24.20;48.40;;;;;;5122081;27;20046;-83
2023/08/16 09:16:20;;;;;;;5.65;2.58;;;23.90;48.70;;;;;;5108333;27;20070;-79
2023/08/16 09:18:50;;;;;;;7.63;2.97;;;23.70;49.60;;;;;;5134958;27;20475;-80
2023/08/16 09:21:24;;;;;;;4.72;2.65;;;23.60;48.30;;;;;;5114359;27;20504;-77
2023/08/16 09:23:57;;;;;;;4.80;2.50;;;23.50;49.70;;;;;;5120219;27;20047;-78
2023/08/16 09:26:24;;;;;;;5.50;2.78;;;23.50;50.80;;;;;;5113101;27;20081;-78
2023/08/16 09:29:00;;;;;;;6.38;2.85;;;23.60;50.70;;;;;;5118484;27;20046;-78
2023/08/16 09:31:36;;;;;;;5.03;2.30;;;23.80;45.50;;;;;;5100975;27;20045;-80
2023/08/16 09:34:02;;;;;;;4.18;2.38;;;23.90;45.40;;;;;;5106855;27;20161;-83
2023/08/16 09:36:30;;;;;;;5.28;2.15;;;23.80;44.70;;;;;;5071775;27;20038;-85
2023/08/16 09:39:08;;;;;;;4.38;2.00;;;24.00;40.60;;;;;;5094961;27;20043;-78
2023/08/16 09:41:35;;;;;;;4.18;1.95;;;24.50;37.30;;;;;;5102544;27;20066;-78
2023/08/16 09:44:06;;;;;;;3.60;2.40;;;25.00;31.60;;;;;;5120457;27;20054;-78
2023/08/16 09:46:34;;;;;;;5.10;2.20;;;25.60;26.70;;;;;;5121706;27;20050;-78
2023/08/16 09:49:12;;;;;;;3.67;2.38;;;26.00;19.10;;;;;;5106219;27;20086;-79
2023/08/16 09:51:40;;;;;;;5.13;2.25;;;25.90;8.80;;;;;;5095794;27;20054;-83
2023/08/16 09:54:13;;;;;;;4.20;1.65;;;26.20;4.50;;;;;;5104444;27;20513;-85
2023/08/16 09:56:40;;;;;;;3.00;1.83;;;26.70;1.00;;;;;;5101822;27;20109;-80
2023/08/16 09:59:11;;;;;;;4.38;2.17;;;27.20;1.00;;;;;;5117683;27;20424;-84
2023/08/16 10:01:37;;;;;;;5.15;2.25;;;27.20;1.00;;;;;;5105169;27;20051;-83
2023/08/16 10:04:04;;;;;;;5.20;3.25;;;27.20;1.00;;;;;;5104793;27;20050;-78
2023/08/16 10:06:31;;;;;;;6.05;3.22;;;27.40;1.00;;;;;;5118262;27;20051;-83
2023/08/16 10:08:57;;;;;;;8.73;3.17;;;27.70;1.00;;;;;;5119754;27;20047;-79
2023/08/16 10:11:24;;;;;;;6.28;2.90;;;28.10;1.00;;;;;;5118505;27;20046;-80
2023/08/16 10:13:51;;;;;;;6.03;2.53;;;28.60;1.00;;;;;;5117498;27;20054;-78
2023/08/16 10:16:21;;;;;;;4.43;2.45;;;29.00;1.00;;;;;;5081714;27;20047;-84
2023/08/16 10:18:47;;;;;;;5.72;2.80;;;29.30;1.00;;;;;;5118462;27;20050;-85
2023/08/16 10:21:18;;;;;;;4.78;2.78;;;29.10;1.00;;;;;;5121932;27;20050;-79
2023/08/16 10:23:44;;;;;;;5.43;2.80;;;28.80;1.00;;;;;;5100102;27;20378;-79
2023/08/16 10:26:14;;;;;;;8.30;3.20;;;28.30;1.00;;;;;;5115416;27;20510;-79
2023/08/16 10:28:46;;;;;;;4.22;2.28;;;28.00;1.00;;;;;;5117837;27;20051;-81
2023/08/16 10:31:14;;;;;;;5.13;2.50;;;28.00;1.00;;;;;;5117609;27;20046;-79
2023/08/16 10:33:44;;;;;;;3.50;1.65;;;28.20;1.00;;;;;;5117982;27;20313;-81
2023/08/16 10:36:11;;;;;;;3.17;1.98;;;28.50;1.00;;;;;;5118641;27;20050;-85
2023/08/16 10:38:38;;;;;;;5.68;1.83;;;28.60;1.00;;;;;;5114525;27;20105;-80
2023/08/16 10:41:15;;;;;;;4.10;2.10;;;28.80;1.00;;;;;;5116209;27;20058;-80
2023/08/16 10:43:51;;;;;;;5.70;1.80;;;28.90;99.90;;;;;;5109878;27;20038;-80
2023/08/16 10:46:45;;;;;;;3.85;1.90;;;28.90;1.00;;;;;;5117973;27;20042;-82
2023/08/16 10:49:11;;;;;;;3.90;2.05;;;28.60;99.90;;;;;;5074669;27;20187;-79
2023/08/16 10:51:51;;;;;;;3.22;2.10;;;28.40;1.00;;;;;;5096803;27;20106;-79
2023/08/16 10:54:17;;;;;;;2.90;1.98;;;28.40;1.00;;;;;;5090711;27;20050;-86
2023/08/16 10:56:44;;;;;;;3.00;1.40;;;28.70;1.00;;;;;;5132914;27;21159;-84
2023/08/16 10:59:14;;;;;;;3.00;1.38;;;28.90;1.00;;;;;;5097272;27;21130;-82
2023/08/16 11:01:47;;;;;;;2.85;1.50;;;28.70;1.00;;;;;;5111837;27;20043;-81
2023/08/16 11:04:13;;;;;;;3.58;1.90;;;28.40;1.00;;;;;;5111308;27;20035;-81
2023/08/16 11:06:39;;;;;;;4.47;1.55;;;28.00;1.00;;;;;;5104976;27;20058;-79
2023/08/16 11:09:06;;;;;;;2.92;1.50;;;27.90;1.00;;;;;;5096077;27;20426;-84
2023/08/16 11:11:33;;;;;;;4.15;1.30;;;28.00;1.00;;;;;;5096741;27;20046;-77
2023/08/16 11:14:00;;;;;;;3.15;1.45;;;28.20;1.00;;;;;;5096861;27;20035;-78
2023/08/16 11:16:30;;;;;;;3.20;1.25;;;28.00;1.00;;;;;;5108601;27;20396;-82
2023/08/16 11:19:00;;;;;;;3.20;1.05;;;27.70;1.00;;;;;;5084188;27;20347;-81
2023/08/16 11:21:26;;;;;;;2.58;1.10;;;27.50;1.00;;;;;;5097170;27;20043;-84
2023/08/16 11:23:54;;;;;;;3.20;1.25;;;27.70;1.00;;;;;;5112761;27;20058;-85
2023/08/16 11:26:21;;;;;;;1.77;1.00;;;27.90;1.00;;;;;;5111485;27;20042;-81
2023/08/16 11:28:47;;;;;;;2.83;1.40;;;28.20;1.00;;;;;;5089956;27;20171;-82
2023/08/16 11:31:13;;;;;;;2.92;1.10;;;28.60;99.90;;;;;;5106964;27;20099;-77
2023/08/16 11:33:41;;;;;;;3.90;1.20;;;29.00;99.90;;;;;;5109353;27;20121;-79
2023/08/16 11:36:12;;;;;;;3.70;1.23;;;29.40;99.90;;;;;;5109615;27;20066;-83
2023/08/16 11:38:39;;;;;;;3.80;1.73;;;29.70;46.80;;;;;;5088079;27;20039;-82
2023/08/16 11:41:06;;;;;;;2.45;1.10;;;30.00;96.10;;;;;;5082705;27;20049;-81
2023/08/16 11:43:36;;;;;;;2.47;1.45;;;30.20;99.90;;;;;;5096908;27;20638;-81
2023/08/16 11:46:04;;;;;;;2.78;1.20;;;30.50;99.90;;;;;;5106146;27;20100;-82
2023/08/16 11:48:30;;;;;;;3.60;1.38;;;30.80;1.00;;;;;;5096045;27;20042;-82
2023/08/16 11:50:57;;;;;;;3.92;1.30;;;30.90;99.90;;;;;;5100388;27;20061;-79
2023/08/16 11:53:33;;;;;;;3.05;1.50;;;30.60;4.40;;;;;;5113008;27;20475;-80
2023/08/16 11:56:03;;;;;;;3.42;1.38;;;30.50;93.90;;;;;;5114294;27;20055;-80
2023/08/16 11:58:29;;;;;;;3.38;1.33;;;30.20;64.60;;;;;;5111582;27;20065;-79
2023/08/16 12:01:02;;;;;;;3.03;1.35;;;30.30;99.90;;;;;;5091339;27;20393;-79
2023/08/16 12:03:33;;;;;;;2.92;1.15;;;30.60;42.70;;;;;;5114064;27;20541;-81
2023/08/16 12:06:05;;;;;;;3.65;1.40;;;30.80;75.90;;;;;;5118504;27;20051;-79
2023/08/16 12:08:32;;;;;;;4.50;1.38;;;31.10;99.90;;;;;;5126846;27;20099;-84
2023/08/16 12:10:58;;;;;;;2.78;1.20;;;31.30;1.00;;;;;;5122580;27;20134;-81
2023/08/16 12:13:24;;;;;;;2.25;1.02;;;31.60;1.00;;;;;;5110954;27;20035;-84
2023/08/16 12:15:50;;;;;;;3.63;1.02;;;31.80;99.90;;;;;;5126984;27;20115;-80
2023/08/16 12:18:21;;;;;;;2.75;1.10;;;31.90;28.30;;;;;;5126313;27;20047;-80
2023/08/16 12:20:50;;;;;;;3.88;1.17;;;31.80;1.00;;;;;;5124299;27;20339;-87
2023/08/16 12:23:20;;;;;;;4.13;1.65;;;31.40;1.00;;;;;;5107828;27;20134;-81
2023/08/16 12:25:46;;;;;;;3.55;1.30;;;31.40;1.00;;;;;;5121327;27;20043;-84
2023/08/16 12:28:12;;;;;;;2.30;1.02;;;31.00;1.00;;;;;;5119940;27;20158;-84
2023/08/16 12:30:38;;;;;;;4.53;1.30;;;30.50;99.90;;;;;;5098932;27;20043;-85
2023/08/16 12:33:04;;;;;;;3.80;1.17;;;30.60;1.00;;;;;;5117398;27;20054;-82
2023/08/16 12:35:31;;;;;;;2.90;1.10;;;30.80;99.90;;;;;;5124072;27;20088;-81
2023/08/16 12:37:58;;;;;;;3.45;1.00;;;30.90;24.90;;;;;;5082122;27;20047;-83
2023/08/16 12:40:28;;;;;;;4.28;1.10;;;31.10;99.90;;;;;;5124699;27;20050;-79
2023/08/16 12:42:54;;;;;;;2.60;0.90;;;31.00;3.80;;;;;;5118634;27;20417;-84
2023/08/16 12:45:21;;;;;;;3.78;1.05;;;31.00;1.00;;;;;;5122489;27;20078;-79
2023/08/16 12:47:47;;;;;;;1.98;1.00;;;31.30;99.90;;;;;;5114376;27;20039;-85